WEATHER DATA

TODAY
Time Temp. Dewp. Hum. Wind dir Wind speed Wind gust Bar.
00:08 17.4 6.6 49 26 0.8 1.1 1004.1
00:18 17.2 6.4 49 15 0.8 1.4 1004
00:28 17.1 6.6 50 26 0.3 1.1 1003.9
00:38 17 6.5 50 38 0.3 1.1 1003.9
00:48 16.9 6.4 50 34 0.3 1.1 1003.9
00:58 16.9 6.7 51 38 0.3 1.1 1003.7
01:08 16.7 6.5 51 32 0.3 1.1 1003.7
01:28 16.5 6.6 52 34 0.8 1.1 1003.6
01:38 16.4 6.5 52 34 0.3 1.4 1003.6
01:49 16.3 6.4 52 28 0.3 1.1 1003.7
01:58 16.2 6.3 52 27 0.3 1.1 1003.7
02:08 16.1 6.5 53 36 0.3 1.4 1003.9
02:18 16 6.4 53 34 0.3 1.1 1003.9
02:29 15.9 6.3 53 41 0.3 1.1 1003.9
02:39 15.9 6.3 53 37 0.3 1.4 1003.7
02:48 16 6.7 54 2 0.8 1.7 1003.7
02:59 16.3 7 54 8 1.1 2.2 1003.7
03:09 16.6 7.3 54 8 0.8 2.2 1003.6
03:19 16.8 7.5 54 19 0.8 1.7 1003.7
03:28 17.1 8 55 7 1.1 3.1 1003.7
03:39 17.3 8.2 55 9 1.1 2.8 1003.6
03:49 17.4 8.3 55 3 1.1 3.1 1003.5
03:59 17.5 8.4 55 10 1.1 2.8 1003.5
04:09 17.4 8.5 56 357 1.1 2.5 1003.4
04:19 17.4 8.5 56 6 1.1 2.8 1003.3
04:29 17.3 8.4 56 3 1.1 2.8 1003.3
04:39 17.3 8.4 56 21 1.1 1.7 1003.3
04:49 17.2 8.4 56 20 1.1 1.7 1003.3
04:59 17 8.2 56 10 1.1 2.8 1003.3
05:09 16.9 8.3 57 0 1.1 3.1 1003.2
05:20 16.8 8.2 57 350 1.1 3.6 1003.2
05:29 16.7 8.1 57 352 1.4 5 1003.2
05:39 16.7 8.1 57 2 1.4 4.2 1003.2
05:56 16.6 8.1 57 343 1.7 6.1 1003.2
06:07 16.6 8.3 58 347 1.7 4.2 1003.2
06:17 16.5 8.2 58 352 1.4 5 1003.4
06:27 16.5 8.2 58 299 1.4 5 1003.6
06:37 16.4 8.1 58 349 1.4 4.2 1003.7
06:47 16.5 8.2 58 348 1.4 3.6 1004
06:57 16.6 8.3 58 355 1.7 4.2 1004.3
07:07 16.7 8.7 59 338 1.7 4.7 1004.4
07:18 16.9 8.8 59 338 1.1 4.7 1004.2
07:27 17.2 9.1 59 356 1.4 4.7 1004.4
07:37 17.3 9.2 59 333 1.7 4.7 1004.3
07:47 17.2 9.1 59 333 1.4 4.7 1004.7
07:58 16.9 8.8 59 315 1.4 4.7 1004.7
08:10 16.6 8.6 59 327 1.7 7.8 1004.8
08:21 16.3 8.3 59 336 1.4 6.1 1004.2
08:31 16.2 8.2 59 2 1.1 3.9 1004
08:41 16.5 8.5 59 315 1.1 4.7 1004.1
08:51 16.8 9 60 329 1.4 4.7 1004.4
09:02 16.9 9.1 60 313 2.2 5.6 1004.2
09:11 16.6 8.8 60 300 1.7 6.4 1004.6
09:21 16.3 8.5 60 333 1.7 5.6 1005
09:32 15.9 8.2 60 342 1.7 5 1005.3
09:42 15.3 7.6 60 349 1.4 3.9 1005.1
09:51 15.1 7.4 60 340 1.4 3.1 1005.3
10:02 14.8 7.1 60 347 1.7 3.9 1005.5
10:12 14.4 6.7 60 349 1.7 4.7 1005.9
10:22 14 6.4 60 331 1.4 3.9 1005.8
10:32 14 6.4 60 311 1.1 3.6 1005.6
10:42 14 6.6 61 295 1.4 3.1 1005.7
10:52 13.7 6.3 61 299 1.4 4.2 1005.7
11:02 13.7 6.3 61 299 1.1 4.2 1005.5
11:12 13.7 6.3 61 319 1.1 4.2 1005.5
11:23 13.8 6.4 61 315 1.1 3.1 1005.2
11:32 13.7 6.3 61 334 1.4 4.2 1005.3
11:42 13.9 6.5 61 0 1.4 3.1 1005
11:51 13.8 6.7 62 345 1.4 6.1 1005
12:01 13.8 6.7 62 352 1.1 3.6 1005
12:11 14.3 7.1 62 333 1.1 3.6 1005.5
12:22 14.4 7.2 62 339 1.1 3.6 1005.6
12:32 14.7 7.5 62 330 1.1 3.9 1005.5
12:41 14.9 7.7 62 346 1.1 2.8 1005.4
12:52 14.9 7.7 62 341 0.8 2.2 1005.6
13:02 15 7.8 62 346 1.1 4.7 1005.6
13:12 15.1 8.1 63 8 0.8 2.8 1005.6
13:20 15.5 8.5 63 292 1.1 8.1 1005.5
13:30 16 9 63 320 1.4 3.1 1005.4
13:39 16.3 9.3 63 315 0.8 2.8 1005.1
14:00 17.2 10.1 63 346 1.1 2.8 1005.2
14:10 17.2 10.1 63 325 1.4 3.9 1005.2
14:20 17.2 10.1 63 336 1.1 3.1 1005.2
14:30 17 9.9 63 349 1.1 3.1 1005.1
14:40 16.9 9.8 63 327 1.1 2.2 1005
14:52 16.7 9.6 63 349 0.8 2.2 1004.9
15:01 16.7 9.6 63 344 1.1 3.6 1005
15:12 16.7 9.6 63 358 1.1 3.1 1005.1
15:22 16.7 9.6 63 354 1.1 3.9 1005.1
15:32 16.5 9.4 63 355 1.1 2.8 1005
15:42 16.4 9.3 63 358 1.1 3.1 1004.9
15:52 16.3 9.5 64 333 1.1 2.8 1004.8
16:02 16.1 9.3 64 343 0.8 2.5 1004.8
16:12 16.1 9.3 64 317 1.1 3.9 1004.6
16:23 16 9.2 64 4 0.8 2.2 1004.6

DAY STATISTIC

2021-05-12
TEMPERATURE
AVERAGE
16.1
HIGH
17.5
03:59
LOW
13.7
10:52
PRESSURE
AVERAGE
1004.4
HIGH
1005.9
10:12
LOW
1003.2
05:09
DEWPOINT
AVERAGE
7.9
HIGH
10.1
14:00
LOW
6.3
01:58
HUMIDITY
AVERAGE
58
HIGH
64
15:52
LOW
49
00:08
WIND SPEED
AVERAGE
1.1
HIGH
2.2
09:02
WIND GUST
AVERAGE
3.4
HIGH
8.1
13:20
WIND DIRECTION
PREVAILING
N
54.7%
N
54.7
NE
14.7
E
0.0
SE
0.0
S
0.0
SW
0.0
W
1.1
NW
29.5
TEMPERATURE (°C)
LOW
13.7
HIGH
17.5
AVERAGE
16.1
PRESSURE (hpa)
LOW
1003.2
HIGH
1005.9
AVERAGE
1004.4
DEVICE